createdAt,value
2018-07-07T00:00:25.615Z,99.90
2018-07-07T00:02:54.051Z,99.90
2018-07-07T00:05:22.490Z,99.90
2018-07-07T00:07:50.924Z,99.90
2018-07-07T00:10:19.373Z,99.90
2018-07-07T00:12:47.786Z,99.90
2018-07-07T00:15:17.863Z,99.90
2018-07-07T00:17:46.850Z,99.90
2018-07-07T00:20:15.838Z,99.90
2018-07-07T00:22:44.387Z,99.90
2018-07-07T00:25:15.159Z,99.90
2018-07-07T00:27:44.355Z,99.90
2018-07-07T00:30:12.805Z,99.90
2018-07-07T00:32:41.258Z,99.90
2018-07-07T00:35:09.819Z,99.90
2018-07-07T00:37:38.304Z,99.90
2018-07-07T00:40:07.339Z,99.90
2018-07-07T00:42:36.165Z,99.90
2018-07-07T00:45:04.687Z,99.90
2018-07-07T00:47:33.221Z,99.90
2018-07-07T00:50:01.759Z,99.90
2018-07-07T00:52:30.518Z,99.90
2018-07-07T00:54:58.970Z,99.90
2018-07-07T00:57:27.398Z,99.90
2018-07-07T00:59:55.825Z,99.90
2018-07-07T01:02:24.616Z,99.90
2018-07-07T01:04:54.234Z,99.90
2018-07-07T01:07:23.309Z,99.90
2018-07-07T01:09:51.814Z,99.90
2018-07-07T01:12:20.279Z,99.90
2018-07-07T01:14:49.268Z,99.90
2018-07-07T01:19:45.914Z,99.90
2018-07-07T01:22:14.926Z,99.90
2018-07-07T01:24:44.150Z,99.90
2018-07-07T01:27:12.610Z,99.90
2018-07-07T01:29:41.896Z,99.90
2018-07-07T01:32:10.683Z,99.90
2018-07-07T01:37:07.908Z,99.90
2018-07-07T01:39:36.329Z,99.90
2018-07-07T01:42:05.006Z,99.90
2018-07-07T01:44:33.466Z,99.90
2018-07-07T01:47:01.911Z,99.90
2018-07-07T01:49:30.371Z,99.90
2018-07-07T01:51:58.809Z,99.90
2018-07-07T01:54:27.237Z,99.90
2018-07-07T01:56:55.715Z,99.90
2018-07-07T01:59:24.259Z,99.90
2018-07-07T02:04:20.843Z,99.90
2018-07-07T02:06:49.314Z,99.90
2018-07-07T02:09:17.754Z,99.90
2018-07-07T02:11:46.207Z,99.90
2018-07-07T02:14:14.644Z,99.90
2018-07-07T02:16:43.207Z,99.90
2018-07-07T02:19:11.675Z,99.90
2018-07-07T02:21:40.100Z,99.90
2018-07-07T02:24:08.534Z,99.90
2018-07-07T02:26:36.958Z,99.90
2018-07-07T02:29:05.379Z,99.90
2018-07-07T02:31:33.915Z,99.90
2018-07-07T02:34:02.322Z,99.90
2018-07-07T02:36:30.794Z,99.90
2018-07-07T02:38:59.214Z,99.90
2018-07-07T02:41:27.646Z,99.90
2018-07-07T02:43:56.074Z,99.90
2018-07-07T02:48:52.679Z,99.90
2018-07-07T02:51:21.143Z,99.90
2018-07-07T02:53:49.581Z,99.90
2018-07-07T02:56:17.990Z,99.90
2018-07-07T02:58:46.620Z,99.90
2018-07-07T03:01:15.037Z,99.90
2018-07-07T03:03:43.541Z,99.90
2018-07-07T03:06:11.991Z,99.90
2018-07-07T03:08:40.432Z,99.90
2018-07-07T03:11:08.866Z,99.90
2018-07-07T03:13:37.298Z,99.90
2018-07-07T03:16:05.807Z,99.90
2018-07-07T03:18:34.225Z,99.90
2018-07-07T03:21:02.671Z,99.90
2018-07-07T03:23:31.072Z,99.90
2018-07-07T03:25:59.535Z,99.90
2018-07-07T03:28:28.319Z,99.90
2018-07-07T03:30:56.764Z,99.90
2018-07-07T03:33:25.184Z,99.90
2018-07-07T03:35:53.640Z,99.90
2018-07-07T03:38:22.053Z,99.90
2018-07-07T03:40:50.489Z,99.90
2018-07-07T03:43:18.906Z,99.90
2018-07-07T03:45:47.312Z,99.90
2018-07-07T03:48:15.727Z,99.90
2018-07-07T03:50:44.545Z,99.90
2018-07-07T03:53:12.994Z,99.90
2018-07-07T03:55:41.409Z,99.90
2018-07-07T03:58:09.861Z,99.90
2018-07-07T04:00:38.289Z,99.90
2018-07-07T04:03:06.703Z,99.90
2018-07-07T04:05:35.129Z,99.90
2018-07-07T04:08:03.564Z,99.90
2018-07-07T04:10:31.988Z,99.90
2018-07-07T04:13:00.397Z,99.90
2018-07-07T04:15:28.834Z,99.90
2018-07-07T04:17:57.248Z,99.90
2018-07-07T04:20:25.674Z,99.90
2018-07-07T04:22:54.086Z,99.90
2018-07-07T04:25:22.502Z,99.90
2018-07-07T04:27:50.935Z,99.90
2018-07-07T04:30:19.352Z,99.90
2018-07-07T04:32:47.760Z,99.90
2018-07-07T04:35:16.170Z,99.90
2018-07-07T04:37:44.581Z,99.90
2018-07-07T04:40:13.019Z,99.90
2018-07-07T04:42:41.485Z,99.90
2018-07-07T04:45:09.906Z,99.90
2018-07-07T04:47:38.319Z,99.90
2018-07-07T04:50:06.829Z,99.90
2018-07-07T04:52:35.249Z,99.90
2018-07-07T04:55:03.698Z,99.90
2018-07-07T04:57:32.109Z,99.90
2018-07-07T05:00:00.547Z,99.90
2018-07-07T05:02:28.958Z,99.90
2018-07-07T05:04:57.406Z,99.90
2018-07-07T05:07:25.853Z,99.90
2018-07-07T05:09:54.276Z,99.90
2018-07-07T05:12:25.160Z,99.90
2018-07-07T05:14:53.785Z,99.90
2018-07-07T05:17:22.231Z,99.90
2018-07-07T05:19:50.636Z,99.90
2018-07-07T05:22:19.045Z,99.90
2018-07-07T05:24:48.341Z,99.90
2018-07-07T05:27:18.089Z,99.90
2018-07-07T05:29:47.388Z,99.90
2018-07-07T05:32:15.839Z,99.90
2018-07-07T05:34:44.241Z,99.90
2018-07-07T05:37:12.681Z,99.90
2018-07-07T05:39:41.097Z,99.90
2018-07-07T05:42:09.506Z,99.90
2018-07-07T05:44:38.946Z,99.90
2018-07-07T05:47:07.369Z,99.90
2018-07-07T05:49:35.826Z,99.90
2018-07-07T05:52:04.294Z,99.90
2018-07-07T05:54:32.746Z,99.90
2018-07-07T05:57:01.174Z,99.90
2018-07-07T05:59:29.787Z,99.90
2018-07-07T06:01:58.697Z,99.90
2018-07-07T06:04:27.126Z,99.90
2018-07-07T06:06:55.709Z,99.90
2018-07-07T06:09:24.130Z,99.90
2018-07-07T06:11:52.525Z,99.90
2018-07-07T06:14:20.964Z,99.90
2018-07-07T06:16:49.357Z,99.90
2018-07-07T06:19:17.753Z,99.90
2018-07-07T06:21:46.158Z,99.90
2018-07-07T06:24:15.023Z,99.90
2018-07-07T06:26:43.466Z,99.90
2018-07-07T06:29:11.862Z,99.90
2018-07-07T06:31:40.290Z,99.90
2018-07-07T06:34:08.693Z,99.90
2018-07-07T06:36:37.114Z,99.90
2018-07-07T06:39:06.435Z,99.90
2018-07-07T06:41:34.905Z,99.00
2018-07-07T06:44:03.541Z,96.10
2018-07-07T06:46:31.963Z,93.20
2018-07-07T06:49:00.474Z,94.20
2018-07-07T06:51:28.916Z,89.70
2018-07-07T06:53:57.505Z,78.50
2018-07-07T06:56:25.794Z,77.50
2018-07-07T06:58:54.705Z,78.60
2018-07-07T07:01:23.118Z,82.00
2018-07-07T07:03:51.506Z,70.30
2018-07-07T07:06:19.954Z,68.20
2018-07-07T07:08:48.369Z,69.30
2018-07-07T07:11:16.827Z,69.00
2018-07-07T07:13:45.225Z,66.60
2018-07-07T07:16:13.645Z,61.20
2018-07-07T07:18:42.048Z,59.50
2018-07-07T07:21:10.474Z,54.40
2018-07-07T07:23:38.909Z,54.90
2018-07-07T07:26:07.485Z,54.10
2018-07-07T07:28:35.728Z,53.10
2018-07-07T07:31:04.149Z,54.90
2018-07-07T07:33:32.601Z,52.50
2018-07-07T07:36:05.293Z,52.20
2018-07-07T07:38:33.717Z,50.70
2018-07-07T07:41:02.168Z,50.40
2018-07-07T07:43:30.565Z,51.00
2018-07-07T07:45:59.010Z,50.80
2018-07-07T07:48:27.434Z,49.60
2018-07-07T07:50:55.881Z,48.80
2018-07-07T07:53:24.297Z,46.70
2018-07-07T07:55:52.859Z,46.10
2018-07-07T07:58:21.246Z,45.20
2018-07-07T08:00:49.678Z,45.40
2018-07-07T08:03:18.111Z,45.50
2018-07-07T08:05:46.527Z,43.50
2018-07-07T08:08:15.524Z,45.80
2018-07-07T08:10:43.962Z,46.10
2018-07-07T08:13:12.357Z,46.00
2018-07-07T08:15:40.757Z,44.20
2018-07-07T08:18:09.181Z,45.10
2018-07-07T08:20:37.586Z,45.60
2018-07-07T08:23:06.042Z,47.40
2018-07-07T08:25:34.437Z,47.10
2018-07-07T08:28:02.902Z,47.20
2018-07-07T08:30:31.291Z,47.10
2018-07-07T08:33:00.541Z,45.90
2018-07-07T08:35:30.214Z,45.80
2018-07-07T08:37:58.659Z,47.20
2018-07-07T08:40:27.090Z,45.70
2018-07-07T08:42:55.522Z,45.60
2018-07-07T08:47:54.273Z,45.50
2018-07-07T08:50:22.755Z,44.40
2018-07-07T08:52:51.154Z,43.60
2018-07-07T08:55:19.564Z,44.40
2018-07-07T09:00:18.042Z,45.10
2018-07-07T09:02:46.482Z,46.50
2018-07-07T09:05:14.882Z,44.40
2018-07-07T09:07:43.317Z,45.90
2018-07-07T09:10:11.758Z,47.00
2018-07-07T09:12:40.178Z,45.70
2018-07-07T09:15:08.606Z,46.50
2018-07-07T09:17:37.048Z,46.20
2018-07-07T09:20:06.577Z,45.00
2018-07-07T09:22:35.039Z,44.60
2018-07-07T09:25:03.510Z,45.20
2018-07-07T09:27:31.994Z,44.70
2018-07-07T09:30:00.724Z,44.60
2018-07-07T09:32:29.175Z,43.90
2018-07-07T09:34:57.702Z,43.10
2018-07-07T09:37:26.541Z,44.30
2018-07-07T09:39:54.955Z,45.50
2018-07-07T09:44:51.508Z,44.60
2018-07-07T09:47:20.107Z,44.50
2018-07-07T09:49:48.616Z,45.50
2018-07-07T09:52:17.026Z,45.30
2018-07-07T09:54:45.438Z,47.60
2018-07-07T09:57:13.870Z,46.00
2018-07-07T09:59:42.307Z,44.10
2018-07-07T10:02:10.726Z,45.50
2018-07-07T10:04:39.145Z,43.00
2018-07-07T10:07:07.578Z,43.60
2018-07-07T10:09:35.965Z,43.60
2018-07-07T10:12:04.382Z,41.80
2018-07-07T10:14:32.786Z,43.20
2018-07-07T10:17:01.206Z,43.00
2018-07-07T10:19:29.605Z,42.50
2018-07-07T10:21:58.026Z,41.60
2018-07-07T10:24:26.438Z,42.50
2018-07-07T10:26:54.821Z,44.00
2018-07-07T10:29:23.225Z,44.20
2018-07-07T10:31:51.641Z,43.60
2018-07-07T10:34:20.074Z,44.00
2018-07-07T10:36:48.473Z,44.40
2018-07-07T10:41:44.990Z,45.00
2018-07-07T10:44:13.414Z,43.20
2018-07-07T10:46:41.806Z,43.60
2018-07-07T10:49:10.206Z,42.80
2018-07-07T10:51:38.640Z,41.10
2018-07-07T10:54:07.054Z,42.20
2018-07-07T10:56:35.459Z,41.60
2018-07-07T10:59:03.914Z,41.90
2018-07-07T11:01:32.315Z,42.30
2018-07-07T11:04:00.788Z,41.40
2018-07-07T11:06:29.209Z,43.40
2018-07-07T11:08:57.613Z,41.70
2018-07-07T11:11:26.038Z,41.10
2018-07-07T11:13:54.453Z,41.00
2018-07-07T11:18:50.953Z,40.60
2018-07-07T11:21:19.366Z,41.30
2018-07-07T11:23:47.813Z,41.30
2018-07-07T11:26:16.241Z,41.50
2018-07-07T11:28:44.658Z,40.90
2018-07-07T11:31:13.062Z,39.50
2018-07-07T11:33:41.498Z,40.10
2018-07-07T11:36:09.891Z,40.30
2018-07-07T11:38:38.330Z,40.80
2018-07-07T11:41:06.982Z,40.90
2018-07-07T11:43:35.473Z,40.90
2018-07-07T11:46:03.923Z,40.50
2018-07-07T11:48:32.374Z,39.90
2018-07-07T11:51:00.792Z,40.00
2018-07-07T11:53:29.193Z,40.40
2018-07-07T11:55:57.582Z,41.60
2018-07-07T11:58:25.980Z,41.00
2018-07-07T12:00:54.397Z,39.90
2018-07-07T12:03:29.366Z,39.60
2018-07-07T12:05:57.793Z,39.10
2018-07-07T12:08:26.271Z,40.30
2018-07-07T12:10:54.623Z,40.10
2018-07-07T12:13:23.038Z,39.20
2018-07-07T12:15:51.468Z,39.60
2018-07-07T12:18:19.882Z,39.40
2018-07-07T12:20:48.289Z,39.40
2018-07-07T12:23:16.723Z,40.00
2018-07-07T12:25:45.155Z,39.90
2018-07-07T12:28:13.561Z,40.90
2018-07-07T12:30:41.974Z,40.10
2018-07-07T12:33:10.401Z,40.30
2018-07-07T12:35:39.830Z,40.00
2018-07-07T12:38:08.862Z,41.00
2018-07-07T12:40:37.306Z,39.50
2018-07-07T12:43:05.759Z,39.60
2018-07-07T12:45:34.190Z,38.50
2018-07-07T12:48:02.618Z,39.60
2018-07-07T12:50:31.049Z,39.30
2018-07-07T12:52:59.477Z,39.80
2018-07-07T12:55:29.448Z,38.70
2018-07-07T12:57:59.926Z,38.80
2018-07-07T13:00:29.794Z,40.20
2018-07-07T13:02:59.666Z,40.30
2018-07-07T13:05:30.270Z,39.60
2018-07-07T13:08:01.129Z,38.90
2018-07-07T13:10:29.637Z,40.40
2018-07-07T13:12:58.035Z,40.10
2018-07-07T13:15:26.468Z,39.90
2018-07-07T13:17:54.894Z,40.00
2018-07-07T13:20:23.361Z,39.60
2018-07-07T13:22:53.870Z,39.90
2018-07-07T13:25:22.290Z,40.30
2018-07-07T13:27:50.717Z,40.50
2018-07-07T13:30:19.162Z,40.20
2018-07-07T13:32:47.610Z,39.50
2018-07-07T13:35:16.014Z,40.70
2018-07-07T13:37:44.429Z,39.30
2018-07-07T13:40:12.921Z,40.90
2018-07-07T13:42:41.319Z,40.40
2018-07-07T13:45:09.739Z,40.40
2018-07-07T13:47:38.153Z,40.70
2018-07-07T13:50:06.669Z,41.50
2018-07-07T13:52:35.086Z,41.70
2018-07-07T13:55:03.532Z,39.40
2018-07-07T13:57:31.954Z,40.50
2018-07-07T14:00:00.370Z,41.50
2018-07-07T14:02:28.782Z,40.60
2018-07-07T14:04:57.192Z,41.10
2018-07-07T14:07:25.617Z,41.10
2018-07-07T14:09:54.042Z,42.20
2018-07-07T14:12:22.882Z,40.60
2018-07-07T14:14:52.139Z,42.80
2018-07-07T14:17:20.638Z,41.00
2018-07-07T14:19:48.997Z,42.80
2018-07-07T14:22:17.401Z,43.20
2018-07-07T14:24:45.830Z,40.70
2018-07-07T14:29:42.398Z,41.60
2018-07-07T14:32:10.784Z,40.70
2018-07-07T14:34:39.181Z,41.20
2018-07-07T14:37:07.630Z,41.00
2018-07-07T14:39:50.578Z,40.90
2018-07-07T14:42:57.309Z,40.80
2018-07-07T14:45:36.529Z,41.10
2018-07-07T14:48:05.631Z,41.80
2018-07-07T14:53:02.189Z,42.30
2018-07-07T14:55:30.622Z,41.90
2018-07-07T14:57:59.108Z,42.20
2018-07-07T15:00:28.655Z,41.90
2018-07-07T15:02:57.783Z,42.20
2018-07-07T15:05:26.200Z,41.10
2018-07-07T15:07:54.871Z,41.40
2018-07-07T15:10:23.334Z,43.10
2018-07-07T15:12:51.732Z,42.20
2018-07-07T15:15:20.687Z,42.40
2018-07-07T15:17:49.085Z,42.20
2018-07-07T15:20:17.489Z,42.20
2018-07-07T15:22:46.035Z,43.40
2018-07-07T15:25:14.318Z,43.70
2018-07-07T15:27:43.135Z,42.60
2018-07-07T15:30:11.561Z,42.40
2018-07-07T15:32:40.598Z,43.30
2018-07-07T15:35:09.023Z,43.60
2018-07-07T15:37:37.422Z,44.10
2018-07-07T15:40:06.294Z,43.30
2018-07-07T15:45:02.895Z,42.70
2018-07-07T15:47:31.312Z,44.10
2018-07-07T15:49:59.738Z,44.00
2018-07-07T15:52:28.167Z,44.30
2018-07-07T15:57:24.715Z,44.30
2018-07-07T15:59:53.126Z,44.10
2018-07-07T16:02:21.541Z,44.60
2018-07-07T16:04:49.925Z,44.70
2018-07-07T16:07:18.326Z,46.50
2018-07-07T16:09:46.770Z,45.50
2018-07-07T16:12:15.181Z,44.80
2018-07-07T16:14:43.607Z,45.80
2018-07-07T16:17:12.010Z,45.60
2018-07-07T16:19:40.448Z,45.00
2018-07-07T16:22:08.900Z,45.80
2018-07-07T16:24:37.265Z,45.50
2018-07-07T16:27:06.173Z,45.40
2018-07-07T16:29:34.600Z,45.00
2018-07-07T16:32:03.006Z,45.20
2018-07-07T16:34:31.419Z,45.60
2018-07-07T16:36:59.846Z,46.00
2018-07-07T16:39:28.290Z,45.60
2018-07-07T16:41:57.258Z,46.40
2018-07-07T16:44:26.135Z,46.40
2018-07-07T16:46:55.001Z,46.30
2018-07-07T16:49:24.572Z,46.70
2018-07-07T16:51:53.421Z,47.30
2018-07-07T16:54:22.518Z,46.10
2018-07-07T16:56:51.563Z,46.50
2018-07-07T16:59:20.006Z,47.20
2018-07-07T17:04:17.082Z,47.70
2018-07-07T17:06:45.509Z,47.00
2018-07-07T17:09:13.959Z,47.00
2018-07-07T17:11:42.434Z,48.00
2018-07-07T17:14:11.282Z,47.60
2018-07-07T17:16:41.405Z,47.30
2018-07-07T17:19:10.637Z,47.50
2018-07-07T17:21:39.326Z,47.60
2018-07-07T17:24:07.785Z,47.30
2018-07-07T17:26:36.286Z,46.70
2018-07-07T17:29:04.714Z,46.80
2018-07-07T17:31:33.157Z,46.80
2018-07-07T17:34:01.594Z,46.60
2018-07-07T17:36:30.057Z,47.60
2018-07-07T17:38:58.904Z,47.60
2018-07-07T17:41:27.419Z,47.40
2018-07-07T17:43:55.857Z,47.30
2018-07-07T17:46:24.346Z,47.50
2018-07-07T17:48:52.900Z,48.20
2018-07-07T17:51:21.398Z,48.70
2018-07-07T17:53:50.221Z,48.50
2018-07-07T17:56:18.754Z,48.10
2018-07-07T17:58:47.190Z,48.10
2018-07-07T18:01:15.818Z,48.40
2018-07-07T18:03:44.375Z,48.50
2018-07-07T18:06:12.783Z,48.20
2018-07-07T18:08:41.527Z,48.70
2018-07-07T18:11:09.933Z,48.90
2018-07-07T18:13:38.333Z,48.30
2018-07-07T18:16:06.795Z,48.30
2018-07-07T18:18:35.187Z,48.70
2018-07-07T18:21:03.644Z,49.70
2018-07-07T18:23:32.444Z,49.50
2018-07-07T18:26:01.686Z,48.90
2018-07-07T18:28:30.997Z,49.90
2018-07-07T18:31:00.181Z,50.20
2018-07-07T18:33:28.808Z,50.10
2018-07-07T18:35:58.074Z,50.00
2018-07-07T18:38:28.165Z,50.20
2018-07-07T18:40:57.965Z,50.60
2018-07-07T18:43:27.533Z,50.60
2018-07-07T18:45:59.357Z,50.00
2018-07-07T18:48:29.205Z,50.40
2018-07-07T18:50:59.360Z,50.80
2018-07-07T18:53:28.786Z,52.60
2018-07-07T18:55:59.560Z,51.70
2018-07-07T18:58:29.065Z,52.60
2018-07-07T19:00:58.521Z,53.00
2018-07-07T19:03:28.606Z,54.50
2018-07-07T19:05:58.179Z,56.90
2018-07-07T19:08:28.656Z,56.70
2018-07-07T19:10:57.945Z,57.50
2018-07-07T19:13:27.487Z,58.30
2018-07-07T19:15:55.956Z,61.00
2018-07-07T19:18:24.721Z,62.70
2018-07-07T19:20:58.813Z,66.80
2018-07-07T19:23:33.103Z,75.20
2018-07-07T19:28:36.614Z,85.70
2018-07-07T19:31:05.897Z,94.10
2018-07-07T19:33:40.494Z,96.80
2018-07-07T19:36:14.551Z,99.90
2018-07-07T19:38:43.302Z,99.90
2018-07-07T19:41:12.054Z,99.90
2018-07-07T19:43:40.784Z,99.90
2018-07-07T19:46:09.660Z,99.90
2018-07-07T19:48:38.472Z,99.90
2018-07-07T19:51:07.260Z,99.90
2018-07-07T19:53:36.153Z,99.90
2018-07-07T19:56:04.975Z,99.90
2018-07-07T19:58:33.958Z,99.90
2018-07-07T20:01:03.627Z,99.90
2018-07-07T20:03:32.731Z,99.90
2018-07-07T20:06:01.488Z,99.90
2018-07-07T20:08:30.291Z,99.90
2018-07-07T20:10:59.307Z,99.90
2018-07-07T20:13:28.098Z,99.90
2018-07-07T20:16:17.876Z,99.90
2018-07-07T20:19:03.155Z,99.90
2018-07-07T20:21:48.360Z,99.90
2018-07-07T20:24:18.988Z,99.90
2018-07-07T20:26:52.848Z,99.90
2018-07-07T20:29:21.502Z,99.90
2018-07-07T20:31:51.494Z,99.90
2018-07-07T20:34:23.891Z,99.90
2018-07-07T20:36:52.985Z,99.90
2018-07-07T20:39:21.975Z,99.90
2018-07-07T20:41:51.604Z,99.90
2018-07-07T20:44:20.639Z,99.90
2018-07-07T20:46:49.713Z,99.90
2018-07-07T20:49:18.539Z,99.90
2018-07-07T20:51:47.317Z,99.90
2018-07-07T20:54:16.121Z,99.90
2018-07-07T20:56:48.297Z,99.90
2018-07-07T20:59:18.313Z,99.90
2018-07-07T21:01:47.127Z,99.90
2018-07-07T21:04:16.876Z,99.90
2018-07-07T21:06:47.592Z,99.90
2018-07-07T21:09:16.335Z,99.90
2018-07-07T21:11:47.697Z,99.90
2018-07-07T21:14:16.514Z,99.90
2018-07-07T21:16:46.658Z,99.90
2018-07-07T21:19:15.296Z,99.90
2018-07-07T21:21:43.752Z,99.90
2018-07-07T21:24:12.251Z,99.90
2018-07-07T21:26:40.739Z,99.90
2018-07-07T21:29:09.308Z,99.90
2018-07-07T21:31:37.959Z,99.90
2018-07-07T21:34:06.508Z,99.90
2018-07-07T21:36:35.040Z,99.90
2018-07-07T21:39:08.443Z,99.90
2018-07-07T21:41:36.930Z,99.90
2018-07-07T21:44:05.714Z,99.90
2018-07-07T21:46:34.148Z,99.90
2018-07-07T21:49:02.575Z,99.90
2018-07-07T21:51:31.042Z,99.90
2018-07-07T21:53:59.567Z,99.90
2018-07-07T21:56:28.136Z,99.90
2018-07-07T21:59:01.927Z,99.90
2018-07-07T22:02:00.666Z,99.90
2018-07-07T22:04:35.120Z,99.90
2018-07-07T22:07:11.297Z,99.90
2018-07-07T22:09:39.957Z,99.90
2018-07-07T22:12:08.443Z,99.90
2018-07-07T22:14:36.926Z,99.90
2018-07-07T22:17:05.405Z,99.90
2018-07-07T22:19:33.831Z,99.90
2018-07-07T22:22:05.308Z,99.90
2018-07-07T22:24:33.846Z,99.90
2018-07-07T22:27:03.481Z,99.90
2018-07-07T22:29:31.961Z,99.90
2018-07-07T22:32:01.579Z,99.90
2018-07-07T22:34:35.428Z,99.90
2018-07-07T22:37:03.858Z,99.90
2018-07-07T22:39:37.456Z,99.90
2018-07-07T22:42:08.043Z,99.90
2018-07-07T22:44:37.052Z,99.90
2018-07-07T22:47:05.601Z,99.90
2018-07-07T22:49:34.131Z,99.90
2018-07-07T22:52:02.575Z,99.90
2018-07-07T22:54:30.998Z,99.90
2018-07-07T22:56:59.393Z,99.90
2018-07-07T22:59:27.814Z,99.90
2018-07-07T23:01:56.225Z,99.90
2018-07-07T23:04:24.737Z,99.90
2018-07-07T23:06:53.303Z,99.90
2018-07-07T23:09:21.778Z,99.90
2018-07-07T23:11:50.233Z,99.90
2018-07-07T23:14:18.744Z,99.90
2018-07-07T23:16:47.201Z,99.90
2018-07-07T23:19:15.647Z,99.90
2018-07-07T23:21:44.148Z,99.90
2018-07-07T23:24:12.584Z,99.90
2018-07-07T23:26:41.047Z,99.90
2018-07-07T23:29:09.475Z,99.90
2018-07-07T23:31:37.951Z,99.90
2018-07-07T23:34:06.418Z,99.90
2018-07-07T23:36:34.896Z,99.90
2018-07-07T23:39:03.870Z,99.90
2018-07-07T23:41:32.381Z,99.90
2018-07-07T23:44:00.795Z,99.90
2018-07-07T23:46:29.250Z,99.90
2018-07-07T23:48:57.661Z,99.90
2018-07-07T23:51:26.244Z,99.90
2018-07-07T23:53:54.668Z,99.90
2018-07-07T23:56:24.194Z,99.90
2018-07-07T23:58:52.745Z,99.90
